Time;durP1;ratioP1;P1;durP2;ratioP2;P2;SDS_P1;SDS_P2;PMS_P1;PMS_P2;Temp;Humidity;BMP_temperature;BMP_pressure;BME280_temperature;BME280_humidity;BME280_pressure;Samples;Min_cycle;Max_cycle;Signal;HPM_P1;HPM_P2
2023/04/12 00:00:37;;;;;;;8.73;2.45;;;;;;;9.14;100.00;100375.53;5126476;27;20034;-70
2023/04/12 00:03:04;;;;;;;8.35;2.38;;;;;;;9.07;100.00;100355.88;5132699;27;20043;-72
2023/04/12 00:05:30;;;;;;;8.15;2.70;;;;;;;9.04;100.00;100351.75;5136928;27;20106;-71
2023/04/12 00:07:57;;;;;;;9.10;2.45;;;;;;;9.01;100.00;100342.25;5136621;27;20058;-71
2023/04/12 00:10:22;;;;;;;5.32;1.85;;;;;;;8.95;100.00;100332.38;5130551;27;20101;-69
2023/04/12 00:12:48;;;;;;;9.05;2.15;;;;;;;8.97;100.00;100337.53;5114584;27;20118;-71
2023/04/12 00:15:14;;;;;;;9.48;2.47;;;;;;;8.97;100.00;100319.47;5133749;27;20031;-68
2023/04/12 00:17:39;;;;;;;7.07;2.30;;;;;;;8.92;100.00;100322.00;5136459;27;20031;-71
2023/04/12 00:20:11;;;;;;;7.60;2.33;;;;;;;8.89;100.00;100319.75;5133506;27;20027;-70
2023/04/12 00:22:37;;;;;;;8.10;2.17;;;;;;;8.86;100.00;100312.97;5114596;28;20490;-69
2023/04/12 00:25:02;;;;;;;9.15;2.20;;;;;;;8.85;100.00;100297.00;5115463;28;20023;-70
2023/04/12 00:27:27;;;;;;;6.40;2.10;;;;;;;8.79;100.00;100287.13;5116161;28;20049;-71
2023/04/12 00:29:53;;;;;;;9.23;2.20;;;;;;;8.81;100.00;100276.91;5128657;27;20503;-70
2023/04/12 00:32:18;;;;;;;7.43;2.10;;;;;;;8.79;100.00;100265.53;5116093;28;20035;-70
2023/04/12 00:34:43;;;;;;;7.70;2.15;;;;;;;8.76;100.00;100263.31;5115696;28;20024;-70
2023/04/12 00:37:09;;;;;;;8.07;2.15;;;;;;;8.71;100.00;100260.44;5115311;28;20027;-70
2023/04/12 00:39:34;;;;;;;8.45;2.00;;;;;;;8.74;100.00;100243.81;5114298;28;20028;-69
2023/04/12 00:42:03;;;;;;;8.35;2.10;;;;;;;8.69;100.00;100234.50;5112895;28;20042;-71
2023/04/12 00:44:29;;;;;;;7.05;2.33;;;;;;;8.73;100.00;100232.19;5115573;28;20035;-69
2023/04/12 00:46:57;;;;;;;8.98;2.22;;;;;;;8.69;100.00;100229.13;5115271;28;20478;-71
2023/04/12 00:49:22;;;;;;;5.40;2.10;;;;;;;8.69;100.00;100231.81;5126673;27;20039;-72
2023/04/12 00:51:47;;;;;;;6.00;2.08;;;;;;;8.68;100.00;100223.94;5113788;28;20027;-72
2023/04/12 00:54:16;;;;;;;6.45;2.20;;;;;;;8.68;100.00;100208.59;5115492;28;20397;-70
2023/04/12 00:56:43;;;;;;;6.40;1.95;;;;;;;8.67;100.00;100200.75;5115044;28;20027;-69
2023/04/12 00:59:09;;;;;;;7.25;2.10;;;;;;;8.67;100.00;100189.97;5115081;28;20023;-69
2023/04/12 01:01:34;;;;;;;7.63;2.20;;;;;;;8.64;100.00;100183.13;5111878;28;20368;-73
2023/04/12 01:03:59;;;;;;;7.07;2.08;;;;;;;8.62;100.00;100174.47;5114879;28;20075;-72
2023/04/12 01:06:52;;;;;;;7.55;2.10;;;;;;;8.60;100.00;100163.06;5115157;28;20027;-72
2023/04/12 01:10:02;;;;;;;6.32;1.70;;;;;;;8.60;100.00;100162.25;5112358;27;20413;-71
2023/04/12 01:12:54;;;;;;;3.90;1.80;;;;;;;8.57;100.00;100147.34;5059265;28;20041;-70
2023/04/12 01:15:23;;;;;;;6.10;2.15;;;;;;;8.50;100.00;100142.06;5114738;28;20055;-69
2023/04/12 01:17:58;;;;;;;7.68;2.20;;;;;;;8.49;100.00;100124.22;5115019;28;20137;-71
2023/04/12 01:20:27;;;;;;;8.00;2.30;;;;;;;8.47;100.00;100114.69;5113908;28;20027;-70
2023/04/12 01:23:09;;;;;;;6.18;2.13;;;;;;;8.48;100.00;100116.34;5114510;28;20059;-68
2023/04/12 01:25:41;;;;;;;10.00;2.15;;;;;;;8.59;100.00;100104.81;5114539;28;20028;-69
2023/04/12 01:28:09;;;;;;;5.38;2.20;;;;;;;8.55;100.00;100094.69;5116116;27;20027;-69
2023/04/12 01:30:35;;;;;;;6.68;2.20;;;;;;;8.55;100.00;100095.50;5130703;27;20027;-70
2023/04/12 01:33:05;;;;;;;6.43;2.38;;;;;;;8.49;100.00;100077.56;5127231;27;20031;-71
2023/04/12 01:35:31;;;;;;;5.50;2.03;;;;;;;8.46;100.00;100078.03;5114567;28;20028;-70
2023/04/12 01:37:58;;;;;;;6.88;2.30;;;;;;;8.46;100.00;100078.03;5114356;28;20044;-71
2023/04/12 01:40:26;;;;;;;9.27;2.35;;;;;;;8.42;100.00;100063.31;5112943;28;20031;-72
2023/04/12 01:43:03;;;;;;;5.85;2.05;;;;;;;8.43;100.00;100051.50;5111889;28;20028;-70
2023/04/12 01:45:28;;;;;;;5.53;2.10;;;;;;;8.44;100.00;100047.75;5110338;27;20032;-72
2023/04/12 01:47:53;;;;;;;7.80;2.38;;;;;;;8.48;100.00;100051.66;5114207;28;20034;-70
2023/04/12 01:50:28;;;;;;;7.93;2.40;;;;;;;8.47;100.00;100050.00;5113010;28;20039;-71
2023/04/12 01:53:04;;;;;;;6.95;2.17;;;;;;;8.43;100.00;100049.59;5114010;28;20034;-70
2023/04/12 01:55:32;;;;;;;7.75;2.30;;;;;;;8.41;100.00;100040.94;5114160;28;20092;-70
2023/04/12 01:58:00;;;;;;;7.40;2.47;;;;;;;8.39;100.00;100015.25;5113646;28;20458;-72
2023/04/12 02:00:26;;;;;;;7.45;2.10;;;;;;;8.40;100.00;100006.13;5109704;28;20473;-68
2023/04/12 02:02:52;;;;;;;6.10;1.80;;;;;;;8.40;100.00;99995.34;5112122;27;20047;-72
2023/04/12 02:05:18;;;;;;;6.80;2.28;;;;;;;8.41;100.00;99996.97;5134894;27;20031;-68
2023/04/12 02:07:44;;;;;;;4.18;1.80;;;;;;;8.43;100.00;99993.00;5133760;27;20419;-71
2023/04/12 02:10:13;;;;;;;8.20;2.30;;;;;;;8.42;100.00;99982.44;5114881;27;20046;-71
2023/04/12 02:12:39;;;;;;;7.43;2.03;;;;;;;8.45;100.00;99982.81;5113872;28;20023;-72
2023/04/12 02:15:06;;;;;;;5.55;1.90;;;;;;;8.47;100.00;99980.72;5123735;27;20077;-72
2023/04/12 02:17:32;;;;;;;7.60;2.22;;;;;;;8.48;100.00;99966.19;5134312;27;20027;-71
2023/04/12 02:19:57;;;;;;;8.75;2.20;;;;;;;8.46;100.00;99960.19;5117315;27;20106;-69
2023/04/12 02:22:22;;;;;;;4.82;1.70;;;;;;;8.45;100.00;99945.06;5113634;28;20034;-72
2023/04/12 02:24:48;;;;;;;5.25;1.90;;;;;;;8.42;100.00;99937.41;5130894;27;20027;-69
2023/04/12 02:27:13;;;;;;;6.18;1.95;;;;;;;8.44;100.00;99937.22;5132632;27;20031;-68
2023/04/12 02:29:38;;;;;;;6.30;1.85;;;;;;;8.43;100.00;99938.25;5121419;27;20096;-72
2023/04/12 02:32:04;;;;;;;6.70;1.92;;;;;;;8.40;100.00;99927.94;5113042;28;20459;-69
2023/04/12 02:34:33;;;;;;;9.15;2.20;;;;;;;8.43;100.00;99914.81;5113558;28;20059;-72
2023/04/12 02:36:58;;;;;;;7.68;1.70;;;;;;;8.42;100.00;99901.56;5113280;28;20110;-71
2023/04/12 02:39:23;;;;;;;5.25;1.90;;;;;;;8.44;100.00;99900.31;5112362;28;20106;-72
2023/04/12 02:41:49;;;;;;;3.63;1.63;;;;;;;8.47;100.00;99896.31;5113375;28;20031;-71
2023/04/12 02:44:15;;;;;;;5.30;1.88;;;;;;;8.40;100.00;99890.19;5123534;27;20035;-69
2023/04/12 02:46:40;;;;;;;6.50;1.95;;;;;;;8.37;100.00;99885.28;5132136;27;20084;-71
2023/04/12 02:49:05;;;;;;;7.95;1.65;;;;;;;8.39;100.00;99864.28;5125022;27;20031;-71
2023/04/12 02:51:31;;;;;;;4.38;1.70;;;;;;;8.37;100.00;99866.41;5113232;28;20084;-68
2023/04/12 02:53:56;;;;;;;3.88;1.70;;;;;;;8.33;100.00;99856.09;5113016;28;20429;-69
2023/04/12 02:56:23;;;;;;;4.75;1.80;;;;;;;8.34;100.00;99862.28;5116811;27;20073;-70
2023/04/12 02:58:48;;;;;;;5.15;1.48;;;;;;;8.31;100.00;99850.09;5128398;27;20415;-71
2023/04/12 03:01:15;;;;;;;3.70;1.38;;;;;;;8.33;100.00;99839.06;5110249;28;20031;-70
2023/04/12 03:03:41;;;;;;;4.05;1.33;;;;;;;8.33;100.00;99839.06;5112978;28;20040;-70
2023/04/12 03:06:08;;;;;;;5.93;1.77;;;;;;;8.34;100.00;99835.34;5111557;28;20034;-69
2023/04/12 03:08:33;;;;;;;3.08;1.48;;;;;;;8.31;100.00;99823.16;5111642;28;20019;-72
2023/04/12 03:10:58;;;;;;;6.63;1.70;;;;;;;8.33;100.00;99818.34;5109904;28;20479;-69
2023/04/12 03:13:24;;;;;;;5.40;1.50;;;;;;;8.29;100.00;99809.09;5133520;27;20054;-69
2023/04/12 03:15:56;;;;;;;5.10;1.50;;;;;;;8.29;100.00;99797.50;5133542;27;20035;-72
2023/04/12 03:18:22;;;;;;;4.68;1.60;;;;;;;8.23;100.00;99796.56;5133632;27;20027;-71
2023/04/12 03:20:47;;;;;;;4.07;1.52;;;;;;;8.27;100.00;99791.50;5115054;28;20027;-69
2023/04/12 03:23:13;;;;;;;4.80;1.40;;;;;;;8.26;100.00;99800.66;5116985;28;20030;-70
2023/04/12 03:25:39;;;;;;;3.33;1.42;;;;;;;8.29;100.00;99789.41;5117206;28;20024;-70
2023/04/12 03:28:05;;;;;;;4.25;1.45;;;;;;;8.26;100.00;99790.69;5132835;27;20035;-70
2023/04/12 03:30:31;;;;;;;3.17;1.50;;;;;;;8.24;100.00;99781.19;5118663;27;20050;-71
2023/04/12 03:32:56;;;;;;;6.15;1.50;;;;;;;8.23;100.00;99788.47;5116489;28;20032;-69
2023/04/12 03:35:22;;;;;;;3.10;1.42;;;;;;;8.21;100.00;99774.41;5116934;27;20474;-69
2023/04/12 03:37:47;;;;;;;5.00;1.48;;;;;;;8.19;100.00;99781.91;5116864;28;20489;-68
2023/04/12 03:40:12;;;;;;;4.47;1.40;;;;;;;8.19;100.00;99764.94;5114493;28;20031;-70
2023/04/12 03:42:38;;;;;;;4.88;1.65;;;;;;;8.23;100.00;99766.91;5116447;27;20466;-69
2023/04/12 03:45:04;;;;;;;4.63;1.65;;;;;;;8.22;100.00;99761.75;5135573;27;20027;-69
2023/04/12 03:47:29;;;;;;;3.70;1.58;;;;;;;8.23;100.00;99748.03;5135968;27;20510;-72
2023/04/12 03:49:55;;;;;;;4.38;1.52;;;;;;;8.26;100.00;99749.47;5124095;27;20059;-69
2023/04/12 03:52:20;;;;;;;3.20;1.55;;;;;;;8.25;100.00;99739.72;5116386;28;20055;-71
2023/04/12 03:54:45;;;;;;;3.03;1.33;;;;;;;8.28;100.00;99728.47;5115271;28;20031;-69
2023/04/12 03:57:11;;;;;;;2.58;1.55;;;;;;;8.26;100.00;99736.78;5115983;28;20030;-71
2023/04/12 03:59:36;;;;;;;4.07;1.42;;;;;;;8.30;100.00;99737.97;5114105;28;20082;-71
2023/04/12 04:02:02;;;;;;;2.35;1.25;;;;;;;8.26;100.00;99720.63;5113016;27;20063;-70
2023/04/12 04:04:27;;;;;;;4.22;1.40;;;;;;;8.23;100.00;99715.72;5124890;27;20055;-71
2023/04/12 04:06:53;;;;;;;6.00;1.67;;;;;;;8.20;100.00;99716.19;5135562;27;20095;-69
2023/04/12 04:09:18;;;;;;;2.85;1.20;;;;;;;8.17;100.00;99700.50;5128024;27;20469;-69
2023/04/12 04:11:45;;;;;;;3.95;1.38;;;;;;;8.16;100.00;99701.53;5115969;28;20031;-69
2023/04/12 04:14:11;;;;;;;3.72;1.52;;;;;;;8.13;100.00;99696.63;5116073;28;20053;-69
2023/04/12 04:16:36;;;;;;;4.68;1.60;;;;;;;8.15;100.00;99697.19;5115756;27;20055;-71
2023/04/12 04:19:01;;;;;;;2.90;1.50;;;;;;;8.10;100.00;99694.41;5131570;27;20450;-70
2023/04/12 04:21:29;;;;;;;3.30;1.35;;;;;;;8.14;100.00;99690.19;5116088;28;20065;-70
2023/04/12 04:23:57;;;;;;;3.30;1.45;;;;;;;8.10;100.00;99689.00;5115889;28;20524;-70
2023/04/12 04:26:32;;;;;;;3.50;1.40;;;;;;;8.11;100.00;99686.09;5116037;27;20032;-72
2023/04/12 04:29:00;;;;;;;3.65;1.27;;;;;;;8.16;100.00;99682.66;5113566;28;20051;-70
2023/04/12 04:31:26;;;;;;;2.55;1.20;;;;;;;8.10;100.00;99681.75;5113788;28;20033;-70
2023/04/12 04:33:51;;;;;;;4.57;1.52;;;;;;;8.10;100.00;99672.84;5114551;28;20065;-72
2023/04/12 04:36:17;;;;;;;4.28;1.52;;;;;;;8.11;100.00;99671.81;5114195;28;20051;-70
2023/04/12 04:38:42;;;;;;;2.83;1.77;;;;;;;8.14;100.00;99668.63;5131441;27;20038;-70
2023/04/12 04:41:08;;;;;;;2.20;1.27;;;;;;;8.15;100.00;99668.38;5115501;28;20028;-72
2023/04/12 04:43:34;;;;;;;5.57;1.58;;;;;;;8.16;100.00;99669.19;5115122;28;20027;-70
2023/04/12 04:46:01;;;;;;;2.65;1.20;;;;;;;8.16;100.00;99658.41;5115429;28;20066;-70
2023/04/12 04:48:26;;;;;;;4.43;1.70;;;;;;;8.18;100.00;99658.19;5115552;28;20110;-72
2023/04/12 04:50:52;;;;;;;2.83;1.45;;;;;;;8.16;100.00;99663.81;5111871;27;20534;-71
2023/04/12 04:53:19;;;;;;;4.07;1.23;;;;;;;8.14;100.00;99653.28;5125176;27;20035;-72
2023/04/12 04:55:46;;;;;;;3.55;1.60;;;;;;;8.20;100.00;99658.75;5135937;27;20091;-70
2023/04/12 04:58:12;;;;;;;2.95;1.48;;;;;;;8.16;100.00;99651.16;5134341;27;20486;-72
2023/04/12 05:00:37;;;;;;;3.42;1.58;;;;;;;8.21;100.00;99657.69;5126067;27;20051;-71
2023/04/12 05:03:03;;;;;;;3.22;1.50;;;;;;;8.21;100.00;99653.13;5115065;28;20039;-70
2023/04/12 05:05:29;;;;;;;2.42;1.35;;;;;;;8.25;100.00;99651.59;5117884;27;20023;-72
2023/04/12 05:07:55;;;;;;;4.22;1.75;;;;;;;8.24;100.00;99649.94;5134111;27;20027;-69
2023/04/12 05:10:21;;;;;;;4.55;2.10;;;;;;;8.29;100.00;99644.69;5128260;27;20028;-71
2023/04/12 05:12:46;;;;;;;2.65;1.50;;;;;;;8.32;100.00;99649.59;5114408;28;20044;-70
2023/04/12 05:15:11;;;;;;;3.72;2.10;;;;;;;8.30;100.00;99651.72;5114553;28;20153;-72
2023/04/12 05:17:37;;;;;;;5.65;2.03;;;;;;;8.32;100.00;99643.38;5114980;28;20027;-71
2023/04/12 05:20:07;;;;;;;7.47;1.92;;;;;;;8.32;100.00;99640.69;5112768;27;20390;-69
2023/04/12 05:22:33;;;;;;;7.03;2.20;;;;;;;8.34;100.00;99631.28;5105339;28;20133;-72
2023/04/12 05:25:00;;;;;;;2.70;1.60;;;;;;;8.37;100.00;99629.19;5114794;28;20038;-71
2023/04/12 05:27:26;;;;;;;3.17;1.65;;;;;;;8.36;100.00;99639.13;5114540;28;20024;-70
2023/04/12 05:29:52;;;;;;;4.15;1.77;;;;;;;8.41;100.00;99641.09;5113445;28;20122;-69
2023/04/12 05:32:17;;;;;;;5.15;1.95;;;;;;;8.35;100.00;99637.53;5113099;28;20502;-70
2023/04/12 05:34:42;;;;;;;2.25;1.63;;;;;;;8.37;100.00;99627.31;5114691;28;20055;-70
2023/04/12 05:37:08;;;;;;;3.10;1.80;;;;;;;8.34;100.00;99631.28;5112342;28;20043;-71
2023/04/12 05:39:33;;;;;;;3.90;2.00;;;;;;;8.39;100.00;99627.88;5113219;28;20023;-72
2023/04/12 05:41:58;;;;;;;4.57;1.88;;;;;;;8.39;100.00;99629.75;5111675;28;20062;-71
2023/04/12 05:44:24;;;;;;;3.42;1.73;;;;;;;8.38;100.00;99628.94;5112786;28;20124;-71
2023/04/12 05:46:49;;;;;;;2.97;1.70;;;;;;;8.40;100.00;99620.63;5113093;28;20035;-72
2023/04/12 05:49:15;;;;;;;2.58;1.67;;;;;;;8.41;100.00;99630.31;5113817;28;20467;-72
2023/04/12 05:51:40;;;;;;;6.40;1.52;;;;;;;8.42;100.00;99629.28;5113198;28;20036;-70
2023/04/12 05:54:06;;;;;;;3.63;1.58;;;;;;;8.43;100.00;99622.84;5120634;27;20031;-69
2023/04/12 05:56:31;;;;;;;1.67;1.40;;;;;;;8.43;100.00;99618.25;5130530;27;20106;-70
2023/04/12 05:58:57;;;;;;;3.25;1.58;;;;;;;8.43;100.00;99622.84;5109691;28;20066;-70
2023/04/12 06:01:23;;;;;;;5.43;1.52;;;;;;;8.44;100.00;99624.47;5111580;28;20023;-72
2023/04/12 06:03:49;;;;;;;1.83;1.55;;;;;;;8.47;100.00;99618.59;5113933;28;20497;-71
2023/04/12 06:06:15;;;;;;;2.28;1.55;;;;;;;8.45;100.00;99618.84;5112490;28;20152;-73
2023/04/12 06:08:41;;;;;;;3.65;1.60;;;;;;;8.47;100.00;99613.22;5111195;28;20118;-69
2023/04/12 06:11:08;;;;;;;3.17;1.80;;;;;;;8.43;100.00;99612.06;5113627;28;20039;-70
2023/04/12 06:13:33;;;;;;;2.55;1.70;;;;;;;8.45;100.00;99615.34;5111544;28;20043;-70
2023/04/12 06:15:59;;;;;;;4.35;1.83;;;;;;;8.49;100.00;99605.72;5120298;27;20211;-71
2023/04/12 06:18:24;;;;;;;5.05;1.90;;;;;;;8.51;100.00;99608.97;5113269;28;20137;-71
2023/04/12 06:20:50;;;;;;;3.38;1.80;;;;;;;8.52;100.00;99616.03;5113416;28;20023;-70
2023/04/12 06:23:17;;;;;;;3.97;2.00;;;;;;;8.54;100.00;99613.88;5112653;28;20035;-70
2023/04/12 06:25:42;;;;;;;3.03;1.70;;;;;;;8.55;100.00;99610.16;5113630;28;20027;-70
2023/04/12 06:28:07;;;;;;;5.43;1.77;;;;;;;8.58;100.00;99609.66;5121792;27;20027;-71
2023/04/12 06:30:32;;;;;;;3.20;1.90;;;;;;;8.62;100.00;99600.03;5133847;27;20054;-69
2023/04/12 06:32:58;;;;;;;2.33;1.85;;;;;;;8.61;100.00;99598.38;5124079;27;20395;-70
2023/04/12 06:35:23;;;;;;;3.33;2.00;;;;;;;8.62;100.00;99613.50;5113275;28;20145;-70
2023/04/12 06:37:48;;;;;;;3.95;2.20;;;;;;;8.58;100.00;99606.97;5113468;28;20063;-72
2023/04/12 06:40:14;;;;;;;2.40;1.70;;;;;;;8.59;100.00;99605.91;5113252;28;20031;-70
2023/04/12 06:42:39;;;;;;;4.07;2.30;;;;;;;8.62;100.00;99600.03;5112250;28;20031;-71
2023/04/12 06:45:06;;;;;;;6.32;2.70;;;;;;;8.59;100.00;99595.13;5113353;28;20030;-71
2023/04/12 06:47:31;;;;;;;2.53;2.33;;;;;;;8.60;100.00;99604.03;5113885;27;20038;-71
2023/04/12 06:49:57;;;;;;;4.07;2.50;;;;;;;8.62;100.00;99612.69;5133503;27;20019;-71
2023/04/12 06:52:24;;;;;;;4.68;2.70;;;;;;;8.64;100.00;99613.28;5129328;27;20055;-71
2023/04/12 16:48:42;;;;;;;6.90;2.20;;;;;;;10.42;100.00;99601.75;5069551;28;20897;-74
2023/04/12 16:51:07;;;;;;;4.72;2.00;;;;;;;10.37;100.00;99599.81;5079313;28;20043;-74
2023/04/12 16:53:33;;;;;;;6.43;2.47;;;;;;;10.35;100.00;99604.63;5087477;28;20040;-74
2023/04/12 16:56:03;;;;;;;3.88;2.60;;;;;;;10.30;100.00;99599.16;5088489;28;20070;-74
2023/04/12 16:58:28;;;;;;;5.70;2.38;;;;;;;10.25;100.00;99597.22;5088350;28;20669;-76
2023/04/12 17:00:55;;;;;;;6.57;2.00;;;;;;;10.15;100.00;99599.00;5067987;28;20032;-73
2023/04/12 17:03:30;;;;;;;5.82;2.22;;;;;;;10.15;100.00;99593.59;5045067;28;20481;-75
2023/04/12 17:05:59;;;;;;;4.22;1.88;;;;;;;10.11;100.00;99588.69;5055417;28;20052;-75
2023/04/12 17:08:24;;;;;;;7.13;2.05;;;;;;;10.03;100.00;99586.41;5048203;28;20380;-74
2023/04/12 17:10:50;;;;;;;5.90;2.10;;;;;;;10.04;100.00;99584.50;5051883;28;20290;-74
2023/04/12 17:13:15;;;;;;;4.35;1.90;;;;;;;10.02;100.00;99594.78;5067792;28;20025;-74
2023/04/12 17:15:44;;;;;;;5.20;2.08;;;;;;;10.02;100.00;99594.78;5068075;28;20021;-76
2023/04/12 17:18:10;;;;;;;7.90;2.60;;;;;;;10.00;100.00;99588.81;5069043;28;20017;-73
2023/04/12 17:20:36;;;;;;;9.07;4.20;;;;;;;9.92;100.00;99585.47;5052908;28;20444;-74
2023/04/12 17:23:02;;;;;;;8.68;4.03;;;;;;;9.87;100.00;99590.00;5067359;28;20025;-74
2023/04/12 17:25:29;;;;;;;6.28;2.70;;;;;;;9.85;100.00;99592.16;5067821;28;20021;-74
2023/04/12 17:27:59;;;;;;;8.52;3.00;;;;;;;9.85;100.00;99586.75;5067382;28;20111;-73
2023/04/12 17:30:24;;;;;;;6.45;2.95;;;;;;;9.85;100.00;99584.03;5067828;28;20043;-74
2023/04/12 17:32:50;;;;;;;7.47;2.20;;;;;;;9.84;100.00;99585.09;5068877;28;20029;-73
2023/04/12 17:35:17;;;;;;;3.60;1.90;;;;;;;9.83;100.00;99580.75;5067624;28;20043;-73
2023/04/12 17:37:43;;;;;;;8.85;2.55;;;;;;;9.78;100.00;99581.50;5068658;28;20400;-74
2023/04/12 17:40:12;;;;;;;4.55;2.72;;;;;;;9.80;100.00;99586.66;5049932;28;20037;-74
2023/04/12 17:42:40;;;;;;;5.20;2.78;;;;;;;9.78;100.00;99584.22;5048950;28;20546;-73
2023/04/12 17:45:07;;;;;;;4.28;2.30;;;;;;;9.73;100.00;99582.25;5048536;28;20063;-72
2023/04/12 17:47:33;;;;;;;5.93;2.25;;;;;;;9.71;100.00;99576.31;5047190;28;20053;-73
2023/04/12 17:49:59;;;;;;;4.82;1.83;;;;;;;9.74;100.00;99578.50;5047289;28;20039;-72
2023/04/12 17:52:24;;;;;;;7.43;2.85;;;;;;;9.65;100.00;99571.09;5066540;28;20032;-72
2023/04/12 17:54:50;;;;;;;6.22;2.65;;;;;;;9.63;100.00;99568.66;5057192;28;20025;-72
2023/04/12 17:57:16;;;;;;;5.80;2.63;;;;;;;9.56;100.00;99557.19;5047362;28;20384;-72
2023/04/12 17:59:41;;;;;;;5.88;2.70;;;;;;;9.58;100.00;99563.16;5037281;28;20029;-72
2023/04/12 18:02:06;;;;;;;4.85;2.75;;;;;;;9.57;100.00;99559.66;5031490;28;20021;-73
2023/04/12 18:04:32;;;;;;;7.78;2.55;;;;;;;9.50;100.00;99564.41;5035345;28;20025;-73
2023/04/12 18:06:58;;;;;;;5.60;2.40;;;;;;;9.48;100.00;99569.25;5050197;28;20480;-72
2023/04/12 18:09:27;;;;;;;7.00;3.08;;;;;;;9.47;100.00;99566.81;5050782;28;20076;-75
2023/04/12 18:11:53;;;;;;;12.35;6.60;;;;;;;9.42;100.00;99564.00;5032884;28;20029;-73
2023/04/12 18:14:21;;;;;;;10.27;6.45;;;;;;;9.42;100.00;99572.13;5033188;28;20040;-72
2023/04/12 18:16:46;;;;;;;5.40;3.42;;;;;;;9.34;100.00;99570.66;5034865;28;20052;-71
2023/04/12 18:19:15;;;;;;;6.65;3.00;;;;;;;9.28;100.00;99558.97;5034506;28;20045;-71
2023/04/12 18:21:42;;;;;;;7.90;2.40;;;;;;;9.23;100.00;99562.41;5033615;28;20594;-72
2023/04/12 18:24:07;;;;;;;6.15;2.60;;;;;;;9.15;100.00;99567.41;5032390;28;20037;-72
2023/04/12 18:26:33;;;;;;;3.72;2.00;;;;;;;9.10;100.00;99568.16;5033160;28;20025;-72
2023/04/12 18:28:58;;;;;;;4.22;2.38;;;;;;;9.12;100.00;99570.59;5034064;28;20036;-72
2023/04/12 18:31:24;;;;;;;5.80;2.50;;;;;;;9.08;100.00;99569.47;5033268;28;20129;-71
2023/04/12 18:33:49;;;;;;;6.10;2.13;;;;;;;9.05;100.00;99579.69;5034369;28;20045;-71
2023/04/12 18:36:15;;;;;;;7.38;2.42;;;;;;;8.98;100.00;99580.91;5050976;28;20464;-72
2023/04/12 18:38:42;;;;;;;6.65;2.40;;;;;;;8.84;100.00;99577.72;5054642;28;20033;-73
2023/04/12 18:41:11;;;;;;;6.00;2.70;;;;;;;8.84;100.00;99569.63;5034936;28;20061;-76
2023/04/12 18:43:39;;;;;;;11.63;2.55;;;;;;;8.81;100.00;99580.91;5032775;28;20037;-76
2023/04/12 18:46:04;;;;;;;6.47;2.80;;;;;;;8.77;100.00;99568.97;5024130;28;20108;-75
